aviador You're here:

KSKF Decoded Metar

SAN ANTONIO in TX, USA
Report Time2018-07-18 22:56:00
UTC Time2018-07-18 23:50:55
Flight Rules vfr VFR
Wind110° at 05 kt
W.Decomp.*RWY 15: 3.4 kt HW 3.7 kt LCW
W.Rank110° ranks 7
Current wind is below 110° avg. (6.9)
Visibility9999 m
Phenomena:N/A
Clouds:N/A
Expected CloudBase > 8,400 ft AGL from Temp-Dew spread
CeilingNone
Temp38°C (ISA +24)
Dew Point17°C (29% RH)
Heat Index39.1°C
QNH1012 hPa
Density Alt3,727 ft
Elevation689 ft
Report Wrong Elevation
Raw Report
KSKF 182256Z AUTO 11005KT 10SM CLR 38/17 A2987 RMK AO2 SLP106
T03790167 $=

Extra information for KSKF:More info

Metar Taf Metar & Taf Last 4 Metars F.Rules Stats Wind Profile Meteogram Temp Stats Airport Information Weather charts Add Link Nearby VenuesMetar ALERT Operation Metar Decoded Social comments

AIRNAV info for KSKF